Time;durP1;ratioP1;P1;durP2;ratioP2;P2;SDS_P1;SDS_P2;PMS_P1;PMS_P2;Temp;Humidity;BMP_temperature;BMP_pressure;BME280_temperature;BME280_humidity;BME280_pressure;Samples;Min_cycle;Max_cycle;Signal;HPM_P1;HPM_P2
2022/01/13 00:01:54;;;;;;;24.90;11.50;;;;;;;8.15;53.03;103735.75;5073070;28;20131;-75
2022/01/13 00:04:21;;;;;;;28.05;13.25;;;;;;;8.15;53.19;103734.88;5091099;28;20123;-75
2022/01/13 00:06:48;;;;;;;29.17;14.00;;;;;;;8.14;53.14;103727.66;5091594;28;20047;-75
2022/01/13 00:09:16;;;;;;;25.92;11.90;;;;;;;8.15;53.26;103742.97;5072123;28;20052;-75
2022/01/13 00:11:46;;;;;;;28.98;13.52;;;;;;;8.16;53.10;103744.75;5091449;28;20080;-75
2022/01/13 00:24:47;;;;;;;28.55;13.50;;;;;;;8.13;53.05;103748.41;5088992;28;20102;-75
2022/01/13 00:27:15;;;;;;;28.30;13.25;;;;;;;8.13;53.12;103744.81;5085565;28;20138;-75
2022/01/13 00:29:43;;;;;;;26.40;12.65;;;;;;;8.15;53.18;103743.88;5090489;28;20104;-75
2022/01/13 00:32:13;;;;;;;30.63;13.93;;;;;;;8.16;53.07;103740.22;5073229;28;20048;-75
2022/01/13 00:34:40;;;;;;;30.67;15.02;;;;;;;8.15;53.05;103743.88;5072160;28;20455;-75
2022/01/13 00:37:07;;;;;;;30.20;14.02;;;;;;;8.16;53.10;103745.66;5090184;28;20156;-74
2022/01/13 00:39:34;;;;;;;30.02;14.52;;;;;;;8.16;53.11;103744.75;5087460;28;20481;-75
2022/01/13 00:42:01;;;;;;;34.17;15.52;;;;;;;8.16;53.19;103752.88;5091310;28;20143;-75
2022/01/13 00:44:27;;;;;;;27.85;13.20;;;;;;;8.16;53.34;103750.16;5072646;28;20064;-75
2022/01/13 00:47:00;;;;;;;31.33;13.90;;;;;;;8.15;53.15;103749.28;5098352;28;20135;-75
2022/01/13 00:49:27;;;;;;;28.00;13.75;;;;;;;8.13;53.29;103748.41;5090472;28;20127;-75
2022/01/13 00:51:54;;;;;;;30.13;13.70;;;;;;;8.15;53.12;103749.28;5090840;28;20138;-75
2022/01/13 00:54:21;;;;;;;30.98;13.77;;;;;;;8.14;53.04;103755.63;5072187;28;20697;-75
2022/01/13 00:56:47;;;;;;;29.15;13.30;;;;;;;8.16;53.26;103755.56;5089936;28;20135;-75
2022/01/13 00:59:15;;;;;;;26.13;12.57;;;;;;;8.16;53.07;103755.56;5073087;28;20131;-75
2022/01/13 01:01:47;;;;;;;29.10;13.88;;;;;;;8.16;53.24;103756.47;5089564;28;20089;-75
2022/01/13 01:04:16;;;;;;;27.80;13.68;;;;;;;8.13;53.17;103753.81;5088349;28;20048;-76
2022/01/13 01:06:44;;;;;;;29.30;13.45;;;;;;;8.15;53.11;103759.22;5072831;28;20047;-75
2022/01/13 01:09:18;;;;;;;29.48;13.65;;;;;;;8.15;53.17;103760.13;5087788;28;20050;-75
2022/01/13 01:11:47;;;;;;;29.83;13.98;;;;;;;8.14;53.28;103758.31;5072291;28;20516;-75
2022/01/13 01:14:16;;;;;;;29.45;13.30;;;;;;;8.14;52.99;103755.63;5091050;28;20685;-75
2022/01/13 01:16:45;;;;;;;30.65;14.27;;;;;;;8.14;52.94;103757.41;5071650;28;20055;-75
2022/01/13 01:19:13;;;;;;;33.08;15.02;;;;;;;8.12;52.85;103756.53;5072611;28;20051;-75
2022/01/13 01:26:51;;;;;;;26.83;12.95;;;;;;;8.09;53.18;103767.38;5088718;28;20127;-75
2022/01/13 01:29:33;;;;;;;30.13;14.52;;;;;;;8.08;53.12;103757.47;5071516;28;20087;-75
2022/01/13 01:32:00;;;;;;;30.00;14.32;;;;;;;8.07;53.29;103770.09;5072552;28;20122;-75
2022/01/13 01:37:03;;;;;;;28.02;13.02;;;;;;;8.07;53.20;103755.69;5077925;28;20581;-74
2022/01/13 01:39:29;;;;;;;31.50;14.15;;;;;;;8.08;53.19;103762.88;5084875;28;20052;-74
2022/01/13 01:41:57;;;;;;;30.80;15.43;;;;;;;8.08;53.38;103766.47;5088107;28;20134;-74
2022/01/13 01:44:29;;;;;;;33.08;15.32;;;;;;;8.10;53.31;103763.75;5061677;28;20126;-74
2022/01/13 01:46:58;;;;;;;29.90;15.50;;;;;;;8.08;53.38;103765.56;5088949;28;20109;-74
2022/01/13 01:49:26;;;;;;;35.22;16.45;;;;;;;8.09;53.18;103760.16;5070778;28;20412;-74
2022/01/13 01:51:59;;;;;;;34.42;16.15;;;;;;;8.11;53.21;103769.16;5071113;28;20131;-74
2022/01/13 01:54:26;;;;;;;;;;;;;;;7.90;53.89;103772.09;5071459;28;20561;-75
2022/01/13 01:56:54;;;;;;;30.85;15.13;;;;;;;8.05;53.44;103774.66;5089143;28;20388;-75
2022/01/13 01:59:26;;;;;;;35.15;17.00;;;;;;;8.09;53.36;103767.38;5089071;28;20132;-75
2022/01/13 02:01:52;;;;;;;34.67;16.80;;;;;;;8.08;53.11;103776.41;5088449;28;20092;-75
2022/01/13 02:04:21;;;;;;;37.13;17.48;;;;;;;8.09;53.07;103776.41;5088971;28;20546;-74
2022/01/13 02:06:48;;;;;;;35.08;16.55;;;;;;;8.08;53.20;103774.59;5088743;28;20139;-74
2022/01/13 02:09:17;;;;;;;36.15;18.25;;;;;;;8.09;53.34;103781.81;5072026;28;20107;-75
2022/01/13 02:11:51;;;;;;;33.88;16.88;;;;;;;8.10;53.17;103777.28;5072755;28;20070;-74
2022/01/13 02:16:56;;;;;;;33.47;16.35;;;;;;;8.10;53.19;103772.78;5085507;28;20048;-74
2022/01/13 02:19:26;;;;;;;33.92;17.10;;;;;;;8.10;52.86;103767.38;5071094;28;20164;-75
2022/01/13 02:21:53;;;;;;;37.20;17.08;;;;;;;8.10;53.18;103774.59;5088178;28;20086;-74
2022/01/13 02:24:20;;;;;;;32.75;15.68;;;;;;;8.10;53.16;103772.78;5088412;28;20037;-74
2022/01/13 02:26:47;;;;;;;32.67;15.82;;;;;;;8.09;53.05;103760.16;5088028;28;20083;-74
2022/01/13 02:29:13;;;;;;;31.73;16.08;;;;;;;8.09;53.16;103772.78;5088793;28;20135;-74
2022/01/13 02:31:40;;;;;;;31.05;15.18;;;;;;;8.08;52.97;103766.47;5084291;28;20571;-74
2022/01/13 02:34:07;;;;;;;30.92;14.63;;;;;;;8.08;53.09;103769.19;5089076;28;20051;-74
2022/01/13 02:36:34;;;;;;;28.00;14.23;;;;;;;8.08;53.00;103761.06;5070716;28;20139;-74
2022/01/13 02:39:01;;;;;;;30.38;15.38;;;;;;;8.07;53.09;103767.38;5071597;28;20112;-74
2022/01/13 02:41:28;;;;;;;27.45;14.93;;;;;;;8.07;53.04;103761.97;5087997;28;20134;-74
2022/01/13 02:43:58;;;;;;;26.05;13.45;;;;;;;8.08;52.82;103757.47;5071606;28;20090;-74
2022/01/13 02:49:00;;;;;;;29.17;14.13;;;;;;;8.07;52.95;103759.28;5089909;28;20086;-74
2022/01/13 02:51:27;;;;;;;28.80;15.60;;;;;;;8.07;52.93;103759.28;5088134;28;20495;-74
2022/01/13 02:53:54;;;;;;;30.60;15.77;;;;;;;8.05;53.29;103753.00;5089471;28;20497;-74
2022/01/13 02:56:20;;;;;;;30.65;16.30;;;;;;;8.05;53.14;103750.28;5086076;28;20510;-74
2022/01/13 02:58:47;;;;;;;26.98;15.35;;;;;;;8.04;52.99;103743.09;5081713;28;20131;-74
2022/01/13 03:01:14;;;;;;;33.97;16.60;;;;;;;8.05;53.14;103746.69;5069667;28;20051;-75
2022/01/13 03:03:42;;;;;;;30.05;15.32;;;;;;;8.05;53.17;103750.28;5068546;28;20044;-74
2022/01/13 03:06:21;;;;;;;29.98;15.70;;;;;;;8.05;53.19;103744.00;5074976;28;20098;-74
2022/01/13 03:08:50;;;;;;;28.77;14.82;;;;;;;8.05;53.01;103735.88;5070029;28;20495;-74
2022/01/13 03:11:18;;;;;;;29.33;15.38;;;;;;;8.04;53.15;103726.84;5087269;28;20062;-74
2022/01/13 03:13:44;;;;;;;25.42;14.05;;;;;;;8.03;52.98;103720.53;5088829;28;20048;-74
2022/01/13 03:16:14;;;;;;;26.90;14.98;;;;;;;8.05;53.08;103725.03;5081417;28;20071;-74
2022/01/13 03:18:41;;;;;;;30.58;16.05;;;;;;;8.03;53.24;103741.28;5088630;28;20048;-74
2022/01/13 03:21:08;;;;;;;30.67;15.68;;;;;;;8.03;53.12;103739.47;5087871;28;20056;-74
2022/01/13 03:23:36;;;;;;;26.33;15.43;;;;;;;8.03;53.14;103738.59;5088585;28;20044;-75
2022/01/13 03:26:04;;;;;;;25.98;14.40;;;;;;;8.02;52.93;103743.09;5081387;28;20123;-74
2022/01/13 03:28:38;;;;;;;27.17;14.75;;;;;;;8.03;53.05;103746.69;5070853;28;20066;-74
2022/01/13 03:31:06;;;;;;;26.80;13.98;;;;;;;8.03;53.04;103749.41;5070191;28;20546;-74
2022/01/13 03:33:34;;;;;;;27.05;15.20;;;;;;;8.02;52.70;103756.63;5088392;28;20044;-74
2022/01/13 03:36:02;;;;;;;27.67;15.70;;;;;;;8.01;52.80;103748.53;5086784;28;20109;-74
2022/01/13 03:38:30;;;;;;;26.55;14.13;;;;;;;8.02;52.94;103743.09;5071051;28;20044;-75
2022/01/13 03:40:56;;;;;;;27.35;15.32;;;;;;;8.00;52.95;103744.00;5066692;28;20068;-74
2022/01/13 03:43:23;;;;;;;28.65;15.60;;;;;;;7.99;53.25;103743.13;5086913;28;20055;-75
2022/01/13 03:45:50;;;;;;;32.28;16.10;;;;;;;7.99;53.07;103737.69;5068541;28;20110;-75
2022/01/13 03:48:17;;;;;;;30.27;15.45;;;;;;;7.99;53.18;103737.69;5084051;28;20044;-74
2022/01/13 03:50:44;;;;;;;29.35;15.30;;;;;;;8.00;53.30;103744.91;5086243;28;20147;-74
2022/01/13 03:53:26;;;;;;;28.08;14.98;;;;;;;8.03;52.98;103744.00;5078267;28;20128;-75
2022/01/13 03:56:17;;;;;;;29.33;15.55;;;;;;;8.00;52.93;103741.31;5086105;28;20255;-74
2022/01/13 03:59:05;;;;;;;28.58;15.05;;;;;;;7.98;53.21;103740.44;5086679;28;20131;-74
2022/01/13 04:02:01;;;;;;;29.95;15.70;;;;;;;7.98;52.90;103752.19;5088317;28;20078;-74
2022/01/13 04:04:30;;;;;;;27.15;14.43;;;;;;;7.95;53.37;103749.47;5065541;28;20466;-75
2022/01/13 04:07:11;;;;;;;29.15;15.15;;;;;;;7.98;53.18;103751.28;5087111;28;20127;-74
2022/01/13 04:09:38;;;;;;;33.08;16.58;;;;;;;7.97;53.14;103754.88;5064309;28;20171;-74
2022/01/13 04:12:07;;;;;;;31.85;16.50;;;;;;;7.97;53.21;103757.59;5072615;28;20048;-74
2022/01/13 04:14:59;;;;;;;32.38;16.08;;;;;;;7.96;53.15;103745.88;5075162;28;20135;-74
2022/01/13 04:17:26;;;;;;;;;;;;;;;7.77;53.52;103743.34;5091729;28;20048;-73
2022/01/13 04:19:53;;;;;;;27.45;13.80;;;;;;;7.93;53.04;103748.59;5091703;28;19927;-73
2022/01/13 04:22:20;;;;;;;29.40;14.75;;;;;;;7.94;52.89;103742.28;5091925;28;20128;-73
2022/01/13 04:24:49;;;;;;;29.52;15.80;;;;;;;7.95;52.91;103743.19;5095964;28;20067;-74
2022/01/13 04:27:25;;;;;;;30.02;15.50;;;;;;;7.96;53.04;103742.28;5091869;28;20088;-73
2022/01/13 04:31:00;;;;;;;28.67;14.35;;;;;;;7.91;53.15;103741.41;5074364;28;20052;-73
2022/01/13 04:32:47;;;;;;;32.85;15.57;;;;;;;7.90;53.02;103736.94;5078253;28;20570;-73
2022/01/13 04:35:14;;;;;;;30.25;15.60;;;;;;;7.90;52.94;103729.72;5072397;28;20303;-74
2022/01/13 04:37:40;;;;;;;32.22;15.82;;;;;;;7.90;52.97;103723.41;5091301;28;20231;-75
2022/01/13 04:40:11;;;;;;;30.02;16.05;;;;;;;7.91;53.09;103726.06;5090888;28;20056;-73
2022/01/13 04:42:41;;;;;;;31.13;15.32;;;;;;;7.90;53.19;103734.22;5088239;28;20048;-73
2022/01/13 04:45:09;;;;;;;30.33;15.70;;;;;;;7.89;52.87;103730.63;5072018;28;20051;-74
2022/01/13 04:47:35;;;;;;;30.83;16.02;;;;;;;7.89;53.06;103722.50;5091167;28;20128;-74
2022/01/13 04:50:03;;;;;;;34.75;17.33;;;;;;;7.89;53.04;103721.59;5090622;28;20538;-74
2022/01/13 04:52:29;;;;;;;38.88;17.80;;;;;;;7.89;53.18;103725.22;5073389;28;20044;-73
2022/01/13 04:54:56;;;;;;;34.85;16.55;;;;;;;7.89;53.20;103725.22;5071234;28;20079;-74
2022/01/13 04:57:23;;;;;;;34.03;16.52;;;;;;;7.89;53.11;103719.78;5086877;28;20037;-73
2022/01/13 04:59:49;;;;;;;35.35;17.17;;;;;;;7.90;53.15;103716.19;5089176;28;20123;-73
2022/01/13 05:02:16;;;;;;;32.63;17.48;;;;;;;7.89;53.19;103719.78;5091242;28;20059;-73
2022/01/13 05:04:44;;;;;;;35.65;18.42;;;;;;;7.90;53.03;103709.88;5090626;28;20052;-74
2022/01/13 05:07:10;;;;;;;31.63;16.10;;;;;;;7.90;53.05;103710.78;5090630;28;20138;-73
2022/01/13 05:09:37;;;;;;;37.42;17.65;;;;;;;7.90;52.92;103705.38;5089927;28;20127;-73
2022/01/13 05:12:03;;;;;;;34.30;16.38;;;;;;;7.91;53.09;103719.75;5076685;28;20396;-73
2022/01/13 05:14:31;;;;;;;31.67;15.88;;;;;;;7.90;52.90;103709.88;5088633;28;20054;-74
2022/01/13 05:17:06;;;;;;;29.23;14.85;;;;;;;7.89;52.95;103706.28;5090248;28;20048;-73
2022/01/13 05:19:38;;;;;;;35.30;16.88;;;;;;;7.87;53.03;103691.84;5088541;28;20501;-74
2022/01/13 05:24:40;;;;;;;34.20;18.40;;;;;;;7.88;53.18;103696.34;5089260;28;20056;-73
2022/01/13 05:27:08;;;;;;;33.90;16.05;;;;;;;7.89;53.40;103697.25;5089510;28;20051;-73
2022/01/13 05:29:34;;;;;;;35.40;17.27;;;;;;;7.88;53.26;103693.66;5089710;28;20122;-74
2022/01/13 05:32:01;;;;;;;33.15;16.38;;;;;;;7.88;53.24;103693.66;5090897;28;20411;-74
2022/01/13 05:34:28;;;;;;;34.30;17.30;;;;;;;7.88;53.09;103693.66;5089582;28;20079;-74
2022/01/13 05:37:11;;;;;;;37.88;16.90;;;;;;;7.87;53.21;103699.97;5074664;28;20044;-74
2022/01/13 05:39:37;;;;;;;37.97;17.95;;;;;;;7.88;53.03;103695.47;5087283;28;20052;-73
2022/01/13 05:42:04;;;;;;;33.53;16.60;;;;;;;7.88;53.11;103700.88;5089690;28;20052;-73
2022/01/13 05:44:37;;;;;;;30.15;15.85;;;;;;;7.88;53.14;103709.88;5071909;28;20078;-74
2022/01/13 05:47:04;;;;;;;;;;;;;;;7.67;53.44;103707.38;5083767;28;20514;-73
2022/01/13 05:49:31;;;;;;;30.73;14.57;;;;;;;7.82;53.22;103703.66;5070551;28;20440;-74
2022/01/13 05:51:58;;;;;;;28.27;14.68;;;;;;;7.85;53.07;103703.59;5088033;28;20079;-73
2022/01/13 05:54:24;;;;;;;32.75;16.05;;;;;;;7.86;53.03;103709.00;5088968;28;20131;-74
2022/01/13 05:56:51;;;;;;;35.28;16.60;;;;;;;7.85;52.97;103707.19;5087566;28;20481;-73
2022/01/13 05:59:20;;;;;;;31.15;16.67;;;;;;;7.85;53.04;103704.50;5088829;28;20075;-74
2022/01/13 06:01:46;;;;;;;38.17;17.10;;;;;;;7.84;53.16;103700.00;5091758;28;20163;-74
2022/01/13 06:04:15;;;;;;;44.55;18.52;;;;;;;7.85;53.34;103698.19;5089176;28;20310;-75
2022/01/13 06:06:42;;;;;;;44.97;19.40;;;;;;;7.85;52.88;103696.38;5089172;28;20242;-74
2022/01/13 06:09:08;;;;;;;44.45;19.35;;;;;;;7.85;53.08;103685.56;5089832;28;20571;-73
2022/01/13 06:11:41;;;;;;;43.40;19.83;;;;;;;7.84;52.75;103686.47;5087693;28;20453;-74
2022/01/13 06:14:07;;;;;;;39.88;18.30;;;;;;;7.82;53.03;103679.31;5070066;28;20054;-75
2022/01/13 06:16:34;;;;;;;38.08;17.90;;;;;;;7.84;53.28;103690.97;5070361;28;20082;-74
2022/01/13 06:19:01;;;;;;;37.67;17.20;;;;;;;7.82;53.07;103680.22;5089934;28;20126;-74
2022/01/13 06:21:28;;;;;;;38.30;17.55;;;;;;;7.82;52.84;103682.91;5088884;28;20143;-74
2022/01/13 06:23:54;;;;;;;37.63;18.10;;;;;;;7.80;52.92;103690.13;5090573;28;20123;-75
2022/01/13 06:26:21;;;;;;;37.85;17.23;;;;;;;7.80;52.86;103691.94;5069085;28;20075;-75
2022/01/13 06:28:47;;;;;;;36.78;16.85;;;;;;;7.80;52.94;103700.06;5088504;28;20106;-74
2022/01/13 06:31:14;;;;;;;38.00;18.38;;;;;;;7.79;52.72;103704.56;5068268;28;20051;-74
2022/01/13 06:33:41;;;;;;;35.75;16.38;;;;;;;7.78;52.78;103702.75;5089588;28;20119;-74
2022/01/13 06:36:13;;;;;;;39.85;16.55;;;;;;;7.74;53.17;103701.00;5087692;28;20089;-74
2022/01/13 06:38:39;;;;;;;37.97;17.55;;;;;;;7.75;53.15;103694.66;5068624;28;20069;-74
2022/01/13 06:41:06;;;;;;;34.33;16.73;;;;;;;7.75;53.07;103693.78;5074132;28;20550;-74
2022/01/13 06:43:33;;;;;;;41.60;19.65;;;;;;;7.74;53.00;103692.88;5078967;28;20132;-74
2022/01/13 06:46:00;;;;;;;37.47;18.17;;;;;;;7.74;53.17;103701.00;5066896;28;20410;-74
2022/01/13 06:48:27;;;;;;;41.28;19.15;;;;;;;7.74;53.13;103703.69;5081066;28;20123;-74
2022/01/13 06:50:53;;;;;;;35.97;17.42;;;;;;;7.74;53.01;103709.09;5076694;28;20138;-74
2022/01/13 06:53:21;;;;;;;32.45;16.17;;;;;;;7.74;52.80;103713.66;5072371;28;20075;-74
2022/01/13 06:55:48;;;;;;;35.90;16.63;;;;;;;7.72;52.97;103705.53;5067931;28;20056;-74
2022/01/13 06:58:14;;;;;;;35.28;16.27;;;;;;;7.72;53.16;103710.06;5080001;28;20076;-74
2022/01/13 07:00:41;;;;;;;33.42;15.20;;;;;;;7.72;52.94;103710.94;5082708;28;20547;-75
2022/01/13 07:03:08;;;;;;;29.63;14.02;;;;;;;7.71;53.10;103714.56;5064477;28;20045;-74
2022/01/13 07:05:35;;;;;;;34.65;15.40;;;;;;;7.72;53.12;103708.25;5065376;28;20057;-74
2022/01/13 07:08:03;;;;;;;36.20;17.40;;;;;;;7.70;53.04;103707.34;5073409;28;20477;-74
2022/01/13 07:10:29;;;;;;;34.63;17.23;;;;;;;7.69;53.09;103697.44;5070476;28;20112;-74
2022/01/13 07:12:56;;;;;;;30.90;14.07;;;;;;;7.69;52.80;103699.25;5089649;28;20197;-74
2022/01/13 07:15:28;;;;;;;34.17;15.65;;;;;;;7.69;53.04;103701.94;5068665;28;20075;-74
2022/01/13 07:17:55;;;;;;;33.25;15.77;;;;;;;7.69;52.91;103701.94;5074749;28;20106;-74
2022/01/13 07:20:21;;;;;;;31.75;15.77;;;;;;;7.67;52.75;103701.06;5070486;28;20450;-74
2022/01/13 07:22:48;;;;;;;34.17;15.88;;;;;;;7.67;52.83;103701.97;5083208;28;20087;-73
2022/01/13 07:25:14;;;;;;;32.83;15.32;;;;;;;7.65;52.85;103698.41;5084561;28;20298;-73
2022/01/13 07:27:41;;;;;;;36.05;15.77;;;;;;;7.64;52.98;103704.72;5086123;28;20080;-74
2022/01/13 07:30:09;;;;;;;35.10;15.43;;;;;;;7.64;53.11;103716.44;5080827;28;20127;-74
2022/01/13 07:32:37;;;;;;;35.45;16.08;;;;;;;7.64;53.16;103715.53;5076883;28;20102;-73
2022/01/13 07:35:05;;;;;;;34.97;15.60;;;;;;;7.63;53.10;103719.13;5087188;28;20060;-72
2022/01/13 07:37:31;;;;;;;37.92;17.15;;;;;;;7.63;53.04;103722.75;5088294;28;20131;-74
2022/01/13 07:39:58;;;;;;;34.92;15.40;;;;;;;7.62;53.02;103726.34;5087779;28;20539;-74
2022/01/13 07:42:26;;;;;;;32.30;14.95;;;;;;;7.62;53.11;103725.44;5088782;28;20534;-74
2022/01/13 07:44:53;;;;;;;34.85;14.73;;;;;;;7.61;53.08;103726.38;5068618;28;20167;-74
2022/01/13 07:47:19;;;;;;;31.17;15.18;;;;;;;7.61;53.09;103729.97;5087031;28;20233;-74
2022/01/13 07:49:46;;;;;;;32.75;14.80;;;;;;;7.61;52.96;103734.47;5089605;28;20132;-73
2022/01/13 07:52:13;;;;;;;33.97;14.73;;;;;;;7.59;53.04;103734.47;5090680;28;20044;-74
2022/01/13 07:54:40;;;;;;;32.95;14.43;;;;;;;7.58;52.98;103746.19;5092034;28;20524;-74
2022/01/13 07:57:06;;;;;;;35.83;15.38;;;;;;;7.58;52.85;103746.19;5091148;28;20054;-74
2022/01/13 07:59:33;;;;;;;36.78;14.90;;;;;;;7.58;52.81;103742.59;5079517;28;20048;-74
2022/01/13 08:02:00;;;;;;;35.80;15.45;;;;;;;7.58;53.04;103745.31;5091423;28;20090;-73
2022/01/13 08:04:27;;;;;;;38.38;15.63;;;;;;;7.57;53.11;103746.25;5091922;28;20056;-73
2022/01/13 08:06:53;;;;;;;36.03;15.90;;;;;;;7.56;52.89;103750.75;5074893;28;20052;-73
2022/01/13 08:09:22;;;;;;;35.33;15.13;;;;;;;7.56;53.08;103745.34;5100831;28;20055;-74
2022/01/13 08:11:51;;;;;;;35.78;15.57;;;;;;;7.56;52.86;103739.94;5100115;28;20097;-74
2022/01/13 08:14:17;;;;;;;34.38;15.02;;;;;;;7.56;52.99;103752.56;5090530;28;20063;-73
2022/01/13 08:16:45;;;;;;;33.40;15.32;;;;;;;7.56;53.16;103748.03;5072329;28;20079;-74
2022/01/13 08:21:57;;;;;;;34.10;15.13;;;;;;;7.54;53.07;103743.53;5091970;28;20044;-74
2022/01/13 08:24:24;;;;;;;32.85;14.77;;;;;;;7.54;53.03;103748.97;5091322;28;20079;-74
2022/01/13 08:26:51;;;;;;;35.45;14.85;;;;;;;7.53;52.88;103748.06;5082182;28;20503;-73
2022/01/13 08:29:17;;;;;;;34.83;14.93;;;;;;;7.52;53.03;103756.19;5089712;28;20130;-73
2022/01/13 08:31:45;;;;;;;37.65;16.15;;;;;;;7.54;52.84;103763.38;5101201;28;20107;-73
2022/01/13 08:34:14;;;;;;;35.20;14.70;;;;;;;7.53;52.95;103753.47;5104209;28;20036;-73
2022/01/13 08:36:40;;;;;;;34.33;14.95;;;;;;;7.52;53.04;103751.66;5090686;28;20391;-74
2022/01/13 08:39:07;;;;;;;36.92;15.80;;;;;;;7.53;52.94;103749.84;5091769;28;20082;-74
2022/01/13 08:41:39;;;;;;;35.17;15.18;;;;;;;7.52;53.13;103761.56;5090635;28;20414;-74
2022/01/13 08:44:06;;;;;;;34.08;14.52;;;;;;;7.51;53.00;103757.97;5074521;28;20048;-74
2022/01/13 08:46:33;;;;;;;36.50;14.55;;;;;;;7.52;52.86;103764.28;5089161;28;20144;-75
2022/01/13 08:48:59;;;;;;;35.22;15.95;;;;;;;7.51;53.14;103757.97;5074686;28;20040;-75
2022/01/13 08:51:26;;;;;;;35.88;15.32;;;;;;;7.52;53.03;103753.47;5089550;28;20529;-74
2022/01/13 08:53:53;;;;;;;36.65;15.70;;;;;;;7.52;53.19;103758.88;5075518;28;20573;-74
2022/01/13 08:56:19;;;;;;;38.50;17.08;;;;;;;7.52;53.17;103762.47;5083295;28;20131;-73
2022/01/13 08:58:47;;;;;;;34.45;16.25;;;;;;;7.52;53.16;103764.28;5098860;28;20478;-73
2022/01/13 09:01:14;;;;;;;33.92;15.65;;;;;;;7.52;53.07;103757.06;5072373;28;20064;-74
2022/01/13 09:03:41;;;;;;;35.83;16.77;;;;;;;7.53;53.15;103756.16;5073866;28;20048;-74
2022/01/13 09:06:07;;;;;;;39.55;17.85;;;;;;;7.53;53.10;103752.56;5070493;28;20074;-74
2022/01/13 09:08:34;;;;;;;40.90;17.75;;;;;;;7.52;53.11;103762.47;5090320;28;20054;-74
2022/01/13 09:11:01;;;;;;;39.97;17.75;;;;;;;7.52;53.32;103767.88;5087726;28;20455;-73
2022/01/13 09:13:30;;;;;;;38.38;16.65;;;;;;;7.53;53.09;103763.38;5087980;28;20141;-74
2022/01/13 09:16:00;;;;;;;38.78;17.75;;;;;;;7.53;53.19;103766.09;5070868;28;20075;-74
2022/01/13 09:18:44;;;;;;;42.30;19.70;;;;;;;7.54;53.50;103770.59;5085163;28;20503;-74
2022/01/13 09:21:11;;;;;;;39.50;17.40;;;;;;;7.52;53.15;103767.88;5089943;28;20110;-74
2022/01/13 09:23:38;;;;;;;38.35;17.83;;;;;;;7.53;53.30;103771.50;5091258;28;20106;-74
2022/01/13 09:26:04;;;;;;;43.72;18.42;;;;;;;7.54;53.41;103778.69;5087922;28;20071;-74
2022/01/13 09:28:31;;;;;;;39.38;16.80;;;;;;;7.55;53.26;103775.09;5090092;28;20125;-74
2022/01/13 09:30:58;;;;;;;39.22;17.17;;;;;;;7.56;53.32;103772.38;5071899;28;20113;-74
2022/01/13 09:33:25;;;;;;;40.78;18.38;;;;;;;7.56;53.28;103769.69;5090541;28;20047;-74
2022/01/13 09:35:52;;;;;;;43.10;18.70;;;;;;;7.57;53.26;103774.19;5088399;28;20157;-74
2022/01/13 09:38:18;;;;;;;40.22;17.67;;;;;;;7.57;53.30;103785.00;5086436;28;20533;-74
2022/01/13 09:40:47;;;;;;;46.40;19.88;;;;;;;7.60;53.20;103778.63;5088984;28;20076;-74
2022/01/13 09:43:14;;;;;;;44.60;18.85;;;;;;;7.60;53.06;103781.34;5088312;28;20301;-74
2022/01/13 09:45:41;;;;;;;38.88;18.35;;;;;;;7.60;53.39;103776.84;5084755;28;20418;-74
2022/01/13 09:48:08;;;;;;;44.22;18.92;;;;;;;7.61;53.26;103781.34;5090852;28;20090;-73
2022/01/13 09:50:34;;;;;;;41.40;18.83;;;;;;;7.62;53.40;103776.81;5089429;28;20048;-74
2022/01/13 09:53:01;;;;;;;39.90;19.42;;;;;;;7.61;53.34;103765.13;5090909;28;20486;-74
2022/01/13 09:55:27;;;;;;;43.67;18.65;;;;;;;7.63;53.39;103768.72;5088824;28;20131;-74
2022/01/13 09:57:56;;;;;;;36.63;16.95;;;;;;;7.64;53.35;103769.59;5084835;28;20395;-73
2022/01/13 10:00:25;;;;;;;46.38;18.38;;;;;;;7.67;53.55;103776.78;5084893;28;20094;-74
2022/01/13 10:02:52;;;;;;;40.67;17.63;;;;;;;7.66;53.51;103777.72;5090429;28;20052;-74
2022/01/13 10:05:21;;;;;;;44.75;18.98;;;;;;;7.69;53.48;103780.38;5069664;28;20046;-75
2022/01/13 10:07:51;;;;;;;37.50;17.15;;;;;;;7.70;53.47;103776.75;5071050;28;20513;-74
2022/01/13 10:10:27;;;;;;;40.17;17.05;;;;;;;7.70;53.40;103774.97;5090716;28;20367;-74
2022/01/13 10:13:08;;;;;;;34.10;16.30;;;;;;;7.73;53.34;103787.56;5088943;28;20071;-74
2022/01/13 10:18:55;;;;;;;37.97;15.80;;;;;;;7.71;53.46;103781.25;5088779;28;20158;-75
2022/01/13 10:21:21;;;;;;;38.55;16.25;;;;;;;7.72;53.70;103772.25;5076593;28;20055;-74
2022/01/13 10:24:09;;;;;;;37.20;16.67;;;;;;;7.78;53.54;103773.09;5088869;28;20076;-74
2022/01/13 10:26:38;;;;;;;37.72;15.98;;;;;;;7.80;53.85;103775.78;5086622;28;20439;-74
2022/01/13 10:29:07;;;;;;;36.25;16.48;;;;;;;7.84;53.47;103777.53;5088939;28;20074;-74
2022/01/13 10:31:50;;;;;;;37.50;17.05;;;;;;;7.89;53.55;103775.72;5069391;28;20088;-74
2022/01/13 10:34:23;;;;;;;36.22;16.33;;;;;;;7.91;53.79;103782.88;5069744;28;20529;-74
2022/01/13 10:37:01;;;;;;;35.00;15.57;;;;;;;7.95;53.57;103776.53;5086814;28;20410;-74
2022/01/13 10:39:45;;;;;;;33.10;15.55;;;;;;;8.00;53.73;103771.06;5066587;28;20082;-74
2022/01/13 10:45:08;;;;;;;35.65;16.05;;;;;;;8.08;53.86;103771.88;5051752;28;20040;-74
2022/01/13 10:47:36;;;;;;;38.40;16.70;;;;;;;8.11;53.77;103765.56;5088044;28;20499;-74
2022/01/13 10:50:10;;;;;;;37.35;16.30;;;;;;;8.17;53.62;103762.78;5087380;28;20163;-74
2022/01/13 10:52:37;;;;;;;32.28;16.25;;;;;;;8.18;53.73;103756.47;5090080;28;20632;-75
2022/01/13 10:55:15;;;;;;;35.63;16.27;;;;;;;8.24;53.58;103759.09;5086722;28;20051;-74
2022/01/13 10:58:02;;;;;;;32.45;14.57;;;;;;;8.25;53.67;103759.09;5085953;28;20060;-75
2022/01/13 11:00:32;;;;;;;29.27;14.95;;;;;;;8.29;53.46;103754.56;5086554;28;20101;-74
2022/01/13 11:03:05;;;;;;;33.20;16.40;;;;;;;8.32;53.42;103758.13;5088941;28;20087;-74
2022/01/13 11:05:35;;;;;;;31.77;16.05;;;;;;;8.34;53.49;103752.72;5078043;28;20142;-74
2022/01/13 11:08:03;;;;;;;28.85;14.50;;;;;;;8.37;53.50;103753.59;5076454;28;20117;-74
2022/01/13 11:10:30;;;;;;;29.92;14.50;;;;;;;8.39;53.55;103745.44;5089719;28;20088;-74
2022/01/13 11:12:59;;;;;;;33.35;15.35;;;;;;;8.43;53.57;103749.00;5073049;28;20148;-74
2022/01/13 11:15:27;;;;;;;31.83;15.60;;;;;;;8.47;53.46;103745.34;5071732;28;20078;-74
2022/01/13 11:17:56;;;;;;;34.97;17.67;;;;;;;8.51;53.42;103741.69;5066558;28;20150;-74
2022/01/13 11:20:24;;;;;;;32.33;15.77;;;;;;;8.53;53.44;103734.44;5065135;28;20080;-74
2022/01/13 11:22:54;;;;;;;34.55;17.17;;;;;;;8.56;53.23;103732.59;5086398;28;20052;-74
2022/01/13 11:25:24;;;;;;;33.45;17.50;;;;;;;8.59;53.33;103723.53;5085418;28;20123;-75
2022/01/13 11:27:52;;;;;;;35.97;16.88;;;;;;;8.61;53.20;103732.53;5081361;28;20087;-75
2022/01/13 11:30:23;;;;;;;30.40;14.88;;;;;;;8.65;53.32;103724.34;5082760;28;20104;-75
2022/01/13 11:32:50;;;;;;;31.13;15.30;;;;;;;8.66;53.29;103719.81;5082080;28;20463;-74
2022/01/13 11:35:24;;;;;;;31.45;15.07;;;;;;;8.70;53.19;103717.06;5085237;28;20039;-75
2022/01/13 11:37:52;;;;;;;34.50;15.60;;;;;;;8.71;53.28;103710.72;5084343;28;20079;-75
2022/01/13 11:40:28;;;;;;;31.75;15.88;;;;;;;8.78;53.15;103714.25;5074651;28;20039;-75
2022/01/13 11:42:59;;;;;;;32.05;14.93;;;;;;;8.81;53.84;103716.03;5092334;28;20131;-74
2022/01/13 11:45:29;;;;;;;34.05;14.95;;;;;;;8.84;53.99;103708.72;5079662;28;20045;-74
2022/01/13 11:48:16;;;;;;;33.65;16.38;;;;;;;8.94;53.27;103718.53;5086382;28;20135;-74
2022/01/13 11:50:49;;;;;;;32.20;16.45;;;;;;;8.99;53.94;103715.75;5085034;28;20144;-74
2022/01/13 11:53:20;;;;;;;30.35;14.48;;;;;;;9.05;53.79;103715.69;5070392;28;20126;-74
2022/01/13 11:55:52;;;;;;;31.70;15.20;;;;;;;9.14;53.38;103707.41;5083114;28;20039;-74
2022/01/13 11:58:42;;;;;;;30.40;14.55;;;;;;;9.19;53.58;103708.22;5087856;28;20409;-74
2022/01/13 12:01:27;;;;;;;31.70;16.30;;;;;;;9.28;53.14;103702.66;5088188;28;20127;-74